• Join FlightAware (Why Join?)
  • Login
  • US Flag 
08:03PM EDT


 

Airport Tracker/Info


-or-


 

Live Flight TrackerFlight Track Log ✈ SWA559 ✈ 09-Apr-2013 ✈ KLAS - KPIT

Flight Track Log - Related Links

Times and Time Zones

All times are in EDT time to prevent confusion due to time zone crossing. See the SWA559 flight status page for this flight to view local times or setup timezone preferences in your user account.

Time Position Orientation Groundspeed Altitude Reporting Facility
EDT Latitude Longitude Course Direction KTS MPH feet Rate Location/Type
09:04PM 36.0733 -115.1158 86° East 141 162 3,300  Level Los Angeles Center
09:04PM 36.0750 -115.0833 86° East 187 215 3,900 1,800 Climbing Los Angeles Center
09:05PM 36.0753 -114.9956 90° East 254 292 6,100 1,860 Climbing Los Angeles Center
09:06PM 36.0750 -114.9494 90° East 261 300 7,000 1,980 Climbing Los Angeles Center
09:06PM 36.0825 -114.9106 77° East 268 308 7,900 2,400 Climbing Los Angeles Center
09:07PM 36.0906 -114.8544 80° East 279 321 9,500 1,860 Climbing Los Angeles Center
09:08PM 36.1108 -114.7447 77° East 320 368 11,200 2,760 Climbing Los Angeles Center
09:09PM 36.1358 -114.5939 78° East 369 425 15,300 3,360 Climbing Los Angeles Center
09:10PM 36.1553 -114.4664 79° East 375 432 18,200 2,520 Climbing Los Angeles Center
09:11PM 36.1778 -114.3350 78° East 385 443 20,500 2,160 Climbing Los Angeles Center
09:12PM 36.2000 -114.1947 79° East 406 467 22,700 2,100 Climbing Los Angeles Center
09:13PM 36.2161 -114.0517 82° East 417 480 24,900 1,980 Climbing Los Angeles Center
09:14PM 36.2325 -113.9058 82° East 424 488 26,900 1,740 Climbing Los Angeles Center
09:15PM 36.2508 -113.7578 81° East 431 496 28,500 1,800 Climbing Los Angeles Center
09:16PM 36.2711 -113.5786 82° East 438 504 30,600 1,500 Climbing Los Angeles Center
09:17PM 36.2886 -113.4294 82° East 438 504 31,700 1,200 Climbing Los Angeles Center
09:18PM 36.3050 -113.2744 82° East 448 516 33,100 1,200 Climbing Los Angeles Center
09:19PM 36.3494 -113.1203 70° East 443 510 34,300 960 Climbing Los Angeles Center
09:20PM 36.4011 -112.9850 65° Northeast 437 503 35,100 780 Climbing Los Angeles Center
09:21PM 36.4478 -112.8408 68° East 448 516 36,000 900 Climbing Los Angeles Center
09:22PM 36.4931 -112.6958 69° East 453 521 37,000 480 Climbing Los Angeles Center
09:23PM 36.5378 -112.5528 69° East 449 517 37,000  Level Los Angeles Center
09:24PM 36.5828 -112.4086 69° East 450 518 37,000  Level Los Angeles Center
09:25PM 36.6358 -112.2364 69° East 448 516 37,000  Level Los Angeles Center
09:26PM 36.6714 -112.1225 69° East 446 513 37,000  Level Los Angeles Center
09:27PM 36.7247 -111.9508 69° East 446 513 37,000  Level Los Angeles Center
09:29PM 36.7683 -111.8081 69° East 443 510 37,000  Level Denver Center
09:30PM 36.8225 -111.6367 68° East 444 511 37,000  Level Denver Center
09:31PM 36.8658 -111.4942 69° East 443 510 37,000  Level Denver Center
09:32PM 36.9086 -111.3522 69° East 440 506 37,000  Level Denver Center
09:33PM 36.9486 -111.2111 70° East 438 504 37,000  Level Denver Center
09:34PM 36.9922 -111.0650 69° East 447 514 37,000  Level Denver Center
09:35PM 37.0347 -110.9186 70° East 450 518 37,000  Level Denver Center
09:36PM 37.0786 -110.7717 69° East 452 520 37,000  Level Denver Center
09:37PM 37.1217 -110.6242 70° East 453 521 37,000  Level Denver Center
09:38PM 37.1739 -110.4481 70° East 451 519 37,000  Level Denver Center
09:39PM 37.2161 -110.3008 70° East 450 518 37,000  Level Denver Center
09:40PM 37.2603 -110.1456 70° East 450 518 37,000  Level Denver Center
09:41PM 37.3008 -110.0044 70° East 451 519 37,000  Level Denver Center
09:42PM 37.3419 -109.8614 70° East 454 522 37,000  Level Denver Center
09:43PM 37.3883 -109.6950 71° East 454 522 37,000  Level Denver Center
09:44PM 37.4294 -109.5517 70° East 455 524 37,000  Level Denver Center
09:45PM 37.4758 -109.3853 71° East 451 519 37,000  Level Denver Center
09:46PM 37.5161 -109.2414 71° East 455 524 37,000  Level Denver Center
09:47PM 37.5564 -109.0958 71° East 458 527 37,000  Level Denver Center
09:48PM 37.6028 -108.9281 71° East 455 524 37,000  Level Denver Center
09:49PM 37.6422 -108.7819 71° East 458 527 37,000  Level Denver Center
09:50PM 37.6953 -108.5869 71° East 458 527 37,000  Level Denver Center
09:51PM 37.7342 -108.4408 71° East 458 527 37,000  Level Denver Center
09:52PM 37.7803 -108.2714 71° East 457 526 37,000  Level Denver Center
09:53PM 37.8200 -108.1256 71° East 458 527 37,000  Level Denver Center
09:54PM 37.8653 -107.9517 72° East 463 533 37,000  Level Denver Center
09:55PM 37.9047 -107.8031 71° East 466 536 37,000  Level Denver Center
09:56PM 37.9439 -107.6528 72° East 468 539 37,000  Level Denver Center
09:57PM 37.9903 -107.4772 71° East 472 543 37,000  Level Denver Center
09:58PM 38.0292 -107.3261 72° East 472 543 37,000  Level Denver Center
09:59PM 38.0711 -107.1636 72° East 471 542 37,000  Level Denver Center
10:01PM 38.1100 -107.0103 72° East 467 537 37,000  Level Denver Center
10:02PM 38.1536 -106.8378 72° East 469 540 37,000  Level Denver Center
10:03PM 38.1917 -106.6889 72° East 465 535 37,000  Level Denver Center
10:04PM 38.2344 -106.5144 73° East 462 532 37,000  Level Denver Center
10:05PM 38.2747 -106.3542 72° East 463 533 37,000  Level Denver Center
10:06PM 38.3133 -106.1981 72° East 462 532 37,000  Level Denver Center
10:07PM 38.3519 -106.0394 73° East 466 536 37,000  Level Denver Center
10:08PM 38.3883 -105.8875 73° East 467 537 37,000  Level Denver Center
10:09PM 38.4300 -105.7181 73° East 467 537 37,000  Level Denver Center
10:10PM 38.4678 -105.5564 73° East 472 543 37,000  Level Denver Center
10:11PM 38.5069 -105.3961 73° East 472 543 37,000  Level Denver Center
10:12PM 38.5458 -105.2331 73° East 475 547 37,000  Level Denver Center
10:13PM 38.5842 -105.0717 73° East 474 545 37,000  Level Denver Center
10:14PM 38.6222 -104.9094 73° East 473 544 37,000  Level Denver Center
10:15PM 38.6661 -104.7208 73° East 472 543 37,000  Level Denver Center
10:16PM 38.7042 -104.5578 73° East 475 547 37,000  Level Denver Center
10:17PM 38.7417 -104.3939 74° East 478 550 37,000  Level Denver Center
10:18PM 38.7789 -104.2325 73° East 474 545 37,000  Level Denver Center
10:19PM 38.8175 -104.0592 74° East 473 544 37,000  Level Denver Center
10:20PM 38.8583 -103.8781 74° East 474 545 37,000  Level Denver Center
10:21PM 38.8936 -103.7156 74° East 471 542 37,000  Level Denver Center
10:22PM 38.9311 -103.5517 74° East 474 545 37,000  Level Denver Center
10:23PM 38.9653 -103.3883 75° East 471 542 37,000  Level Denver Center
10:24PM 39.0081 -103.1972 74° East 473 544 37,000  Level Denver Center
10:25PM 39.0417 -103.0353 75° East 467 537 37,000  Level Denver Center
10:26PM 39.0769 -102.8717 74° East 469 540 37,000  Level Denver Center
10:27PM 39.1106 -102.7108 75° East 471 542 37,000  Level Denver Center
10:28PM 39.1447 -102.5542 74° East 474 545 37,000  Level Denver Center
10:29PM 39.1831 -102.3717 75° East 475 547 37,000  Level Denver Center
10:30PM 39.2150 -102.2125 75° East 479 551 37,000  Level Denver Center
10:31PM 39.2486 -102.0561 74° East 473 544 37,000  Level Denver Center
10:32PM 39.2856 -101.8714 75° East 476 548 37,000  Level Denver Center
10:33PM 39.3208 -101.6994 75° East 480 552 37,000  Level Denver Center
10:34PM 39.3533 -101.5411 75° East 479 551 37,000  Level Denver Center
10:35PM 39.3900 -101.3572 75° East 474 545 37,000  Level Denver Center
10:37PM 39.4206 -101.2036 76° East 464 534 37,000  Level Denver Center
10:38PM 39.4506 -101.0492 76° East 462 532 37,000  Level Denver Center
10:39PM 39.4847 -100.8678 76° East 465 535 37,000  Level Denver Center
10:40PM 39.5147 -100.7150 76° East 460 529 37,000  Level Denver Center
10:41PM 39.5486 -100.5331 76° East 465 535 37,000  Level Denver Center
10:42PM 39.5781 -100.3808 76° East 460 529 37,000  Level Denver Center
10:43PM 39.6078 -100.2261 76° East 463 533 37,000  Level Denver Center
10:44PM 39.6411 -100.0472 76° East 460 529 37,000  Level Denver Center
10:45PM 39.6708 -99.8822 77° East 466 536 37,000  Level Denver Center
10:46PM 39.7019 -99.7192 76° East 466 536 37,000  Level Denver Center
10:47PM 39.7319 -99.5531 77° East 471 542 37,000  Level Denver Center
10:48PM 39.7617 -99.3878 77° East 471 542 37,000  Level Denver Center
10:49PM 39.7917 -99.2225 77° East 471 542 37,000  Level Denver Center
10:50PM 39.8197 -99.0603 77° East 462 532 37,000  Level Denver Center
10:51PM 39.8539 -98.8675 77° East 456 525 37,000  Level Denver Center
10:52PM 39.8753 -98.7386 78° East 457 526 37,000  Level Minneapolis Center
10:53PM 39.9206 -98.5839 69° East 462 532 37,000  Level Minneapolis Center
10:54PM 39.9972 -98.4383 55° Northeast 483 556 37,000  Level Minneapolis Center
10:55PM 40.0736 -98.2958 55° Northeast 482 555 37,000  Level Minneapolis Center
10:56PM 40.1519 -98.1489 55° Northeast 490 564 37,000  Level Minneapolis Center
10:57PM 40.2453 -97.9714 55° Northeast 494 568 37,000  Level Minneapolis Center
10:58PM 40.3225 -97.8233 56° Northeast 494 568 37,000  Level Minneapolis Center
10:59PM 40.3953 -97.6722 58° Northeast 493 567 37,000  Level Minneapolis Center
11:00PM 40.4656 -97.5194 59° Northeast 491 565 37,000  Level Minneapolis Center
11:01PM 40.5358 -97.3686 58° Northeast 486 559 37,000  Level Minneapolis Center
11:02PM 40.6025 -97.2186 60° Northeast 489 563 37,000  Level Minneapolis Center
11:03PM 40.6486 -97.0539 70° East 481 554 37,000  Level Minneapolis Center
11:04PM 40.6642 -96.8783 83° East 482 555 37,000  Level Minneapolis Center
11:05PM 40.6772 -96.7036 84° East 481 554 37,000  Level Minneapolis Center
11:06PM 40.6917 -96.5078 84° East 456 525 37,000  Level Minneapolis Center
11:07PM 40.7033 -96.3469 84° East 446 513 37,000  Level Minneapolis Center
11:08PM 40.7153 -96.1878 84° East 441 507 37,000  Level Minneapolis Center
11:09PM 40.7267 -96.0267 85° East 444 511 37,000  Level Minneapolis Center
11:10PM 40.7386 -95.8603 85° East 453 521 37,000  Level Minneapolis Center
11:11PM 40.7494 -95.6931 85° East 460 529 37,000  Level Minneapolis Center
11:12PM 40.7608 -95.5242 85° East 464 534 37,000  Level Minneapolis Center
11:13PM 40.7733 -95.3556 84° East 464 534 37,000  Level Minneapolis Center
11:14PM 40.7856 -95.1547 85° East 461 531 37,000  Level Minneapolis Center
11:15PM 40.7964 -94.9869 85° East 461 531 37,000  Level Minneapolis Center
11:16PM 40.8064 -94.8181 85° East 462 532 37,000  Level Minneapolis Center
11:17PM 40.8156 -94.6494 86° East 462 532 37,000  Level Minneapolis Center
11:18PM 40.8239 -94.4911 86° East 462 532 37,000  Level Minneapolis Center
11:19PM 40.8317 -94.3233 86° East 463 533 37,000  Level Minneapolis Center
11:20PM 40.8411 -94.1539 86° East 464 534 37,000  Level Minneapolis Center
11:21PM 40.8536 -93.9492 85° East 470 541 37,000  Level Minneapolis Center
11:22PM 40.8619 -93.7803 86° East 466 536 37,000  Level Minneapolis Center
11:23PM 40.8706 -93.6114 86° East 465 535 37,000  Level Minneapolis Center
11:24PM 40.8789 -93.4411 86° East 465 535 37,000  Level Minneapolis Center
11:26PM 40.8875 -93.2711 86° East 466 536 37,000  Level Minneapolis Center
11:27PM 40.8972 -93.0658 86° East 468 539 37,000  Level Minneapolis Center
11:28PM 40.9044 -92.8972 87° East 465 535 37,000  Level Minneapolis Center
11:28PM 40.9092 -92.7958 86° East 460 529 37,000  Level Chicago Center
11:29PM 40.9153 -92.6269 87° East 461 531 37,000  Level Chicago Center
11:30PM 40.9231 -92.4575 86° East 462 532 37,000  Level Chicago Center
11:31PM 40.9311 -92.2525 87° East 466 536 37,000  Level Chicago Center
11:32PM 40.9381 -92.0811 87° East 469 540 37,000  Level Chicago Center
11:33PM 40.9428 -91.9086 88° East 471 542 37,000  Level Chicago Center
11:34PM 40.9492 -91.7356 87° East 473 544 37,000  Level Chicago Center
11:35PM 40.9544 -91.5619 88° East 475 547 37,000  Level Chicago Center
11:36PM 40.9600 -91.3892 88° East 475 547 37,000  Level Chicago Center
11:37PM 40.9661 -91.1953 88° East 472 543 37,000  Level Chicago Center
11:38PM 40.9706 -91.0225 88° East 470 541 37,000  Level Chicago Center
11:39PM 40.9750 -90.8483 88° East 473 544 37,000  Level Chicago Center
11:40PM 40.9800 -90.6742 88° East 473 544 37,000  Level Chicago Center
11:41PM 40.9831 -90.5000 89° East 471 542 37,000  Level Chicago Center
11:43PM 40.9869 -90.3239 88° East 475 547 37,000  Level Chicago Center
11:44PM 40.9908 -90.1603 88° East 477 549 37,000  Level Chicago Center
11:45PM 40.9942 -89.9508 89° East 476 548 37,000  Level Chicago Center
11:46PM 40.9981 -89.7761 88° East 478 550 37,000  Level Chicago Center
11:47PM 40.9994 -89.6014 89° East 478 550 37,000  Level Chicago Center
11:48PM 41.0025 -89.4356 89° East 480 552 37,000  Level Chicago Center
11:49PM 41.0047 -89.2589 89° East 479 551 37,000  Level Chicago Center
11:50PM 41.0061 -89.0753 89° East 482 555 37,000  Level Chicago Center
11:51PM 41.0067 -88.9011 90° East 479 551 37,000  Level Chicago Center
11:52PM 41.0086 -88.7272 89° East 477 549 37,000  Level Chicago Center
11:53PM 41.0100 -88.5522 89° East 480 552 37,000  Level Chicago Center
11:54PM 41.0100 -88.3394 90° East 484 557 37,000  Level Chicago Center
11:55PM 41.0111 -88.1622 89° East 488 562 37,000  Level Chicago Center
11:56PM 41.0111 -87.9861 90° East 486 559 37,000  Level Chicago Center
11:57PM 41.0122 -87.8092 89° East 486 559 37,000  Level Chicago Center
11:58PM 41.0117 -87.6322 90° East 487 560 37,000  Level Chicago Center
11:59PM 41.0119 -87.4544 90° East 487 560 37,000  Level Chicago Center
12:00AM 41.0106 -87.2761 91° East 488 562 37,000  Level Chicago Center
12:01AM 41.0100 -87.0631 90° East 488 562 37,000  Level Chicago Center
12:02AM 41.0075 -86.8861 91° East 485 558 37,000  Level Chicago Center
12:03AM 41.0050 -86.7317 91° East 488 562 37,000  Level Chicago Center
12:04AM 41.0039 -86.5514 90° East 491 565 37,000  Level Chicago Center
12:05AM 41.0119 -86.3731 87° East 489 563 37,000  Level Chicago Center
12:06AM 41.0206 -86.1561 87° East 493 567 37,000  Level Chicago Center
12:07AM 41.0272 -85.9772 87° East 491 565 37,000  Level Chicago Center
12:08AM 41.0336 -85.7989 87° East 489 563 37,000  Level Chicago Center
12:09AM 41.0397 -85.6200 87° East 489 563 37,000  Level Chicago Center
12:10AM 41.0447 -85.4453 88° East 482 555 37,000  Level Chicago Center
12:11AM 41.0506 -85.2697 87° East 482 555 37,000  Level Chicago Center
12:12AM 41.0558 -85.0939 88° East 482 555 37,000  Level Chicago Center
12:13AM 41.0600 -84.9203 88° East 478 550 37,000  Level Chicago Center
12:14AM 41.0642 -84.7456 88° East 477 549 37,000  Level Chicago Center
12:15AM 41.0714 -84.5633 87° East 477 549 37,000  Level Cleveland Center
12:16AM 41.0625 -84.3894 94° East 477 549 37,000  Level Cleveland Center
12:17AM 41.0433 -84.2147 98° East 477 549 37,000  Level Cleveland Center
12:18AM 41.0217 -84.0372 99° East 483 556 37,000  Level Cleveland Center
12:19AM 41.0017 -83.8656 99° East 483 556 37,000  Level Cleveland Center
12:20AM 40.9794 -83.6911 100° East 478 550 37,000  Level Cleveland Center
12:21AM 40.9608 -83.5364 99° East 478 550 37,000  Level Cleveland Center
12:22AM 40.9381 -83.3619 100° East 478 550 37,000  Level Cleveland Center
12:23AM 40.9150 -83.1853 100° East 478 550 37,000  Level Cleveland Center
12:24AM 40.8897 -83.0139 101° East 478 550 37,000  Level Cleveland Center
12:25AM 40.8681 -82.8428 99° East 478 550 37,000 -300 Level Cleveland Center
12:26AM 40.8444 -82.6664 100° East 478 550 36,400 -1,680 Descending Cleveland Center
12:27AM 40.8225 -82.4956 100° East 478 550 33,700 -2,880 Descending Cleveland Center
12:28AM 40.7961 -82.3219 101° East 478 550 30,700 -2,700 Descending Cleveland Center
12:29AM 40.7736 -82.1486 100° East 478 550 28,400 -2,340 Descending Cleveland Center
12:30AM 40.7506 -81.9836 100° East 460 529 26,100 -2,280 Descending Cleveland Center
12:31AM 40.7275 -81.8242 101° East 455 524 23,900 -2,160 Descending Cleveland Center
12:32AM 40.7061 -81.6650 100° East 444 511 21,800 -2,100 Descending Cleveland Center
12:33AM 40.6806 -81.5031 102° East 430 495 19,800 -2,040 Descending Cleveland Center
12:34AM 40.6608 -81.3578 100° East 410 472 17,800 -2,040 Descending Cleveland Center
12:35AM 40.6386 -81.2125 101° East 405 466 15,800 -2,040 Descending Cleveland Center
12:36AM 40.6186 -81.0728 101° East 394 453 13,800 -1,920 Descending Cleveland Center
12:37AM 40.6022 -80.9494 100° East 389 448 12,000 -1,500 Descending Cleveland Center
12:38AM 40.5881 -80.8156 98° East 383 441 10,800 -1,380 Descending Cleveland Center
12:39AM 40.5861 -80.6869 91° East 365 420 9,300 -1,440 Descending Cleveland Center
12:40AM 40.5819 -80.5586 92° East 351 404 8,000 -1,320 Descending Cleveland Center
12:41AM 40.5778 -80.4436 93° East 335 386 6,700 -1,260 Descending Cleveland Center
12:41AM 40.5756 -80.3639 92° East 301 346 6,000 -720 Descending FAA TRACON SMA TRACON (SMA)
12:42AM 40.5747 -80.3317 92° East 281 323 6,000  Level FAA TRACON SMA TRACON (SMA)
12:42AM 40.5747 -80.2967 90° East 269 310 6,000 -180 Level FAA TRACON SMA TRACON (SMA)
12:42AM 40.5731 -80.2636 94° East 262 302 5,900 -600 Descending FAA TRACON SMA TRACON (SMA)
12:43AM 40.5722 -80.2344 92° East 254 292 5,600 -1,080 Descending FAA TRACON SMA TRACON (SMA)
12:43AM 40.5703 -80.2011 94° East 251 289 5,200 -1,080 Descending FAA TRACON SMA TRACON (SMA)
12:43AM 40.5706 -80.1708 89° East 249 287 4,900 -780 Descending FAA TRACON SMA TRACON (SMA)
12:44AM 40.5700 -80.1442 92° East 235 270 4,700 -600 Descending FAA TRACON SMA TRACON (SMA)
12:44AM 40.5697 -80.1131 91° East 219 252 4,500 -600 Descending FAA TRACON SMA TRACON (SMA)
12:45AM 40.5689 -80.0892 93° East 212 244 4,300 -780 Descending FAA TRACON SMA TRACON (SMA)
12:45AM 40.5678 -80.0697 94° East 209 241 4,000 -1,260 Descending FAA TRACON SMA TRACON (SMA)
12:45AM 40.5506 -80.0572 151° Southeast 147 169 3,500 -1,320 Descending FAA TRACON SMA TRACON (SMA)
12:46AM 40.5389 -80.0578 182° South 136 157 3,100 -780 Descending FAA TRACON SMA TRACON (SMA)
12:46AM 40.5311 -80.0644 213° Southwest 116 133 3,000 -180 Descending FAA TRACON SMA TRACON (SMA)
12:46AM 40.5189 -80.0731 208° Southwest 114 131 3,000  Level FAA TRACON SMA TRACON (SMA)
12:47AM 40.5083 -80.0822 213° Southwest 115 132 3,000  Level FAA TRACON SMA TRACON (SMA)
12:47AM 40.5031 -80.0881 220° Southwest 115 132 3,000  Level FAA TRACON SMA TRACON (SMA)
12:47AM 40.4983 -80.1022 246° West 109 125 3,000 -180 Level FAA TRACON SMA TRACON (SMA)
12:47AM 40.4975 -80.1142 265° West 108 124 2,900 -480 Descending FAA TRACON SMA TRACON (SMA)
12:48AM 40.4978 -80.1267 272° West 108 124 2,700 -600 Descending FAA TRACON SMA TRACON (SMA)
12:48AM 40.4981 -80.1406 272° West 108 124 2,500 -660 Descending FAA TRACON SMA TRACON (SMA)
12:48AM 40.4986 -80.1539 273° West 108 124 2,300 -480 Descending FAA TRACON SMA TRACON (SMA)
12:49AM 40.4989 -80.1658 272° West 108 124 2,200 -600 Descending FAA TRACON SMA TRACON (SMA)
12:49AM 40.4994 -80.1800 273° West 111 128 1,900 -780 Descending FAA TRACON SMA TRACON (SMA)
12:50AM 40.5000 -80.1950 273° West 115 132 1,700 -600 Descending FAA TRACON SMA TRACON (SMA)
12:50AM 40.5006 -80.2089 273° West 120 138 1,500 -660 Descending FAA TRACON SMA TRACON (SMA)